createdAt,value
2022-10-25T00:04:33.674Z,6.20
2022-10-25T00:09:36.426Z,4.75
2022-10-25T00:19:43.126Z,8.90
2022-10-25T00:24:46.400Z,8.27
2022-10-25T00:29:49.173Z,7.57
2022-10-25T00:34:53.564Z,9.60
2022-10-25T00:39:56.348Z,12.00
2022-10-25T00:55:09.309Z,11.77
2022-10-25T01:00:12.921Z,9.93
2022-10-25T01:05:18.144Z,12.48
2022-10-25T01:10:20.971Z,15.20
2022-10-25T01:21:10.387Z,16.48
2022-10-25T01:26:34.862Z,17.08
2022-10-25T01:31:44.919Z,12.30
2022-10-25T01:36:57.021Z,10.15
2022-10-25T01:42:07.379Z,8.70
2022-10-25T01:47:18.519Z,8.13
2022-10-25T01:52:23.095Z,11.07
2022-10-25T01:57:43.667Z,12.68
2022-10-25T02:03:02.533Z,8.90
2022-10-25T02:08:14.265Z,8.70
2022-10-25T02:13:24.091Z,8.82
2022-10-25T02:23:40.661Z,9.55
2022-10-25T02:28:43.749Z,9.40
2022-10-25T02:33:48.856Z,10.48
2022-10-25T02:38:53.152Z,12.50
2022-10-25T02:43:55.980Z,9.02
2022-10-25T02:49:00.077Z,13.38
2022-10-25T02:54:02.879Z,9.55
2022-10-25T02:59:05.756Z,14.93
2022-10-25T03:04:09.911Z,7.88
2022-10-25T03:09:12.665Z,13.70
2022-10-25T03:14:15.611Z,12.57
2022-10-25T03:19:19.721Z,12.32
2022-10-25T03:24:22.481Z,13.52
2022-10-25T03:34:29.399Z,18.92
2022-10-25T03:39:32.197Z,19.08
2022-10-25T03:44:35.054Z,18.02
2022-10-25T03:49:39.207Z,11.43
2022-10-25T03:54:42.364Z,15.82
2022-10-25T03:59:45.444Z,13.18
2022-10-25T04:04:49.600Z,17.77
2022-10-25T04:09:52.349Z,19.98
2022-10-25T04:14:55.136Z,14.80
2022-10-25T04:25:01.988Z,11.55
2022-10-25T04:30:05.234Z,13.35
2022-10-25T04:35:10.913Z,12.98
2022-10-25T04:40:14.098Z,12.68
2022-10-25T04:45:17.045Z,15.10
2022-10-25T04:50:21.467Z,17.70
2022-10-25T04:55:24.192Z,15.05
2022-10-25T05:00:27.296Z,16.23
2022-10-25T05:05:31.396Z,13.35
2022-10-25T05:10:34.178Z,18.38
2022-10-25T05:15:37.046Z,13.88
2022-10-25T05:20:41.151Z,10.30
2022-10-25T05:25:43.908Z,9.55
2022-10-25T05:30:46.760Z,15.73
2022-10-25T05:35:50.908Z,9.82
2022-10-25T05:40:54.855Z,19.27
2022-10-25T05:46:03.666Z,7.95
2022-10-25T05:51:32.234Z,11.13
2022-10-25T05:56:36.643Z,13.73
2022-10-25T06:01:41.531Z,17.55
2022-10-25T06:06:48.052Z,11.23
2022-10-25T06:11:50.817Z,15.15
2022-10-25T06:16:53.647Z,14.40
2022-10-25T06:21:57.760Z,20.20
2022-10-25T06:27:00.513Z,15.90
2022-10-25T06:32:03.735Z,17.92
2022-10-25T06:37:08.017Z,16.20
2022-10-25T06:42:10.794Z,15.55
2022-10-25T06:47:17.410Z,16.35
2022-10-25T06:52:21.962Z,26.23
2022-10-25T06:57:24.676Z,13.82
2022-10-25T07:07:31.546Z,17.75
2022-10-25T07:12:38.054Z,15.70
2022-10-25T07:17:40.950Z,16.55
2022-10-25T07:22:45.069Z,18.55
2022-10-25T07:27:48.076Z,11.95
2022-10-25T07:32:51.137Z,18.85
2022-10-25T07:37:55.392Z,14.15
2022-10-25T07:42:58.209Z,15.73
2022-10-25T07:48:01.229Z,19.13
2022-10-25T07:53:05.396Z,8.18
2022-10-25T07:58:10.709Z,10.27
2022-10-25T08:03:13.554Z,9.38
2022-10-25T08:08:17.793Z,18.02
2022-10-25T08:13:20.609Z,11.93
2022-10-25T08:18:23.856Z,11.80
2022-10-25T08:23:29.307Z,12.80
2022-10-25T08:28:32.242Z,14.10
2022-10-25T08:33:35.073Z,8.05
2022-10-25T08:38:39.255Z,11.10
2022-10-25T08:43:55.321Z,10.48
2022-10-25T08:49:11.555Z,11.38
2022-10-25T08:54:24.033Z,14.75
2022-10-25T08:59:31.143Z,8.95
2022-10-25T09:04:34.604Z,13.18
2022-10-25T09:09:49.081Z,10.15
2022-10-25T09:15:01.558Z,10.85
2022-10-25T09:20:07.552Z,12.73
2022-10-25T09:25:21.581Z,12.60
2022-10-25T09:30:24.333Z,14.77
2022-10-25T09:35:32.048Z,13.65
2022-10-25T09:40:47.976Z,12.27
2022-10-25T09:45:55.233Z,13.30
2022-10-25T09:51:06.593Z,12.20
2022-10-25T09:56:10.845Z,16.27
2022-10-25T10:01:17.941Z,16.15
2022-10-25T10:06:23.871Z,15.73
2022-10-25T10:11:29.317Z,13.13
2022-10-25T10:16:35.577Z,10.75
2022-10-25T10:21:42.320Z,9.68
2022-10-25T10:26:51.477Z,8.35
2022-10-25T10:31:56.553Z,10.18
2022-10-25T10:37:03.854Z,7.45
2022-10-25T10:42:17.611Z,9.65
2022-10-25T10:47:22.600Z,6.07
2022-10-25T10:52:29.393Z,6.80
2022-10-25T10:57:36.043Z,10.00
2022-10-25T11:02:41.393Z,4.82
2022-10-25T11:07:44.597Z,7.40
2022-10-25T11:13:06.532Z,4.63
2022-10-25T11:18:10.642Z,6.20
2022-10-25T11:23:20.346Z,6.63
2022-10-25T11:28:41.533Z,6.07
2022-10-25T11:33:58.457Z,10.40
2022-10-25T11:39:12.224Z,10.38
2022-10-25T11:44:54.919Z,6.82
2022-10-25T11:50:12.730Z,11.85
2022-10-25T11:55:28.396Z,9.38
2022-10-25T12:00:45.421Z,7.68
2022-10-25T12:05:57.659Z,11.05
2022-10-25T12:11:05.573Z,11.23
2022-10-25T12:16:15.250Z,6.38
2022-10-25T12:21:23.135Z,8.40
2022-10-25T12:26:30.488Z,8.00
2022-10-25T12:31:39.131Z,5.63
2022-10-25T12:36:45.021Z,8.55
2022-10-25T12:41:52.461Z,7.85
2022-10-25T12:47:14.411Z,5.40
2022-10-25T12:52:29.338Z,7.37
2022-10-25T12:57:46.104Z,5.35
2022-10-25T13:03:25.421Z,4.40
2022-10-25T13:08:30.270Z,6.35
2022-10-25T13:13:35.434Z,5.03
2022-10-25T13:18:46.002Z,7.07
2022-10-25T13:24:10.106Z,5.75
2022-10-25T13:29:47.606Z,5.25
2022-10-25T13:34:51.775Z,3.65
2022-10-25T13:39:55.331Z,5.78
2022-10-25T13:45:06.109Z,5.00
2022-10-25T13:55:25.240Z,7.07
2022-10-25T14:00:37.321Z,5.60
2022-10-25T14:06:23.766Z,7.28
2022-10-25T14:11:36.476Z,5.38
2022-10-25T14:16:45.588Z,5.35
2022-10-25T14:21:52.481Z,7.20
2022-10-25T14:26:56.751Z,5.53
2022-10-25T14:31:59.935Z,9.38
2022-10-25T14:37:04.092Z,12.85
2022-10-25T14:42:17.350Z,6.20
2022-10-25T14:47:30.636Z,8.40
2022-10-25T14:52:34.866Z,4.78
2022-10-25T14:57:37.685Z,8.10
2022-10-25T15:02:41.533Z,11.38
2022-10-25T15:07:47.862Z,7.65
2022-10-25T15:12:52.273Z,11.82
2022-10-25T15:17:55.107Z,8.90
2022-10-25T15:23:07.166Z,14.50
2022-10-25T15:28:11.712Z,10.57
2022-10-25T15:33:17.039Z,9.02
2022-10-25T15:38:21.105Z,6.82
2022-10-25T15:43:23.861Z,9.13
2022-10-25T15:48:26.649Z,13.88
2022-10-25T15:53:30.757Z,8.95
2022-10-25T15:58:33.509Z,11.88
2022-10-25T16:03:36.239Z,8.60
2022-10-25T16:08:40.454Z,7.63
2022-10-25T16:13:46.348Z,8.27
2022-10-25T16:18:49.133Z,11.07
2022-10-25T16:23:53.235Z,10.73
2022-10-25T16:28:56.121Z,11.07
2022-10-25T16:33:58.832Z,11.88
2022-10-25T16:39:04.211Z,7.88
2022-10-25T16:44:07.479Z,10.85
2022-10-25T16:49:10.293Z,10.18
2022-10-25T16:54:15.642Z,9.25
2022-10-25T16:59:18.556Z,14.00
2022-10-25T17:04:23.286Z,12.70
2022-10-25T17:09:27.373Z,13.40
2022-10-25T17:14:30.156Z,12.88
2022-10-25T17:19:32.965Z,12.77
2022-10-25T17:24:37.630Z,12.63
2022-10-25T17:29:40.564Z,12.60
2022-10-25T17:34:43.245Z,10.38
2022-10-25T17:44:50.077Z,12.43
2022-10-25T17:49:54.246Z,16.17
2022-10-25T17:54:58.289Z,17.33
2022-10-25T18:00:00.985Z,14.43
2022-10-25T18:10:27.709Z,12.97
2022-10-25T18:15:30.351Z,18.90
2022-10-25T18:25:36.861Z,16.40
2022-10-25T18:30:39.553Z,15.18
2022-10-25T18:40:46.121Z,13.77
2022-10-25T18:45:48.802Z,16.88
2022-10-25T18:55:55.333Z,18.08
2022-10-25T19:00:58.295Z,12.02
2022-10-25T19:06:01.027Z,18.90
2022-10-25T19:16:09.470Z,16.38
2022-10-25T19:21:14.710Z,18.98
2022-10-25T19:26:20.676Z,19.85
2022-10-25T19:31:23.478Z,21.58
2022-10-25T19:41:30.120Z,20.83
2022-10-25T19:46:32.920Z,19.20
2022-10-25T19:51:35.643Z,23.38
2022-10-25T20:01:43.498Z,22.23
2022-10-25T20:06:46.328Z,16.42
2022-10-25T20:16:52.994Z,20.45
2022-10-25T20:27:01.893Z,23.85
2022-10-25T20:32:04.886Z,23.63
2022-10-25T20:37:09.704Z,22.20
2022-10-25T20:42:13.812Z,20.25
2022-10-25T20:47:16.604Z,24.58
2022-10-25T20:52:19.378Z,23.05
2022-10-25T20:57:23.505Z,19.10
2022-10-25T21:02:26.414Z,24.27
2022-10-25T21:07:30.878Z,18.13
2022-10-25T21:12:35.036Z,17.00
2022-10-25T21:17:37.766Z,16.88
2022-10-25T21:27:45.403Z,28.80
2022-10-25T21:32:48.377Z,20.83
2022-10-25T21:42:58.801Z,21.63
2022-10-25T21:48:01.536Z,23.05
2022-10-25T21:58:08.244Z,17.38
2022-10-25T22:03:11.040Z,21.83
2022-10-25T22:08:13.765Z,17.95
2022-10-25T22:18:20.368Z,22.52
2022-10-25T22:28:27.101Z,21.17
2022-10-25T22:33:30.561Z,22.58
2022-10-25T22:38:34.862Z,22.13
2022-10-25T22:43:39.714Z,19.05
2022-10-25T22:48:44.288Z,22.88
2022-10-25T22:53:47.128Z,19.23
2022-10-25T22:58:52.883Z,22.40
2022-10-25T23:03:57.118Z,30.27
2022-10-25T23:09:02.115Z,27.98
2022-10-25T23:14:07.405Z,18.98
2022-10-25T23:19:10.269Z,16.33
2022-10-25T23:24:13.001Z,22.85
2022-10-25T23:34:19.691Z,22.33
2022-10-25T23:39:22.521Z,22.08
2022-10-25T23:49:29.148Z,18.75
2022-10-25T23:59:35.802Z,15.52
